Battle Mountain Airport


Codes: KBAM/BAM
Name: Battle Mountain Airport
City: Battle Mountain
Country: United States
Elevation: 4532 ft.
Website:
Wikipedia:

Photos at Battle Mountain Airport


   Photos courtesy of SpottingLog. You can add your own sightings and photos by signing up for a free trial today.



No photos found.

Weather at Battle Mountain Airport


Time (UTC)DescriptionTempratureWindCloud coverageVisibilityPressureHumidity
15-Apr-2024 18:00Broken Clouds6°C11 mph, W69%10000m1018hPa71%
15-Apr-2024 21:00Broken Clouds10°C13 mph, W66%10000m1017hPa52%
16-Apr-2024 00:00Broken Clouds14°C20 mph, NW67%10000m1014hPa45%
16-Apr-2024 03:00Overcast Clouds11°C11 mph, W98%10000m1016hPa53%
16-Apr-2024 06:00Overcast Clouds10°C7 mph, W88%10000m1018hPa59%
16-Apr-2024 09:00Clear Sky9°C4 mph, W10%10000m1018hPa62%
16-Apr-2024 12:00Few Clouds8°C2 mph, NW15%10000m1019hPa67%
16-Apr-2024 15:00Scattered Clouds10°C2 mph, W34%10000m1020hPa57%
16-Apr-2024 18:00Broken Clouds13°C7 mph, W70%10000m1018hPa48%
16-Apr-2024 21:00Overcast Clouds16°C7 mph, SW100%10000m1015hPa35%
17-Apr-2024 00:00Overcast Clouds17°C9 mph, W100%10000m1014hPa32%
17-Apr-2024 03:00Broken Clouds14°C7 mph, W78%10000m1015hPa43%
17-Apr-2024 06:00Scattered Clouds12°C4 mph, W43%10000m1016hPa50%
17-Apr-2024 09:00Scattered Clouds10°C4 mph, NW40%10000m1016hPa59%
17-Apr-2024 12:00Few Clouds9°C4 mph, SW23%10000m1016hPa61%
17-Apr-2024 15:00Scattered Clouds10°C4 mph, NW34%10000m1017hPa53%
17-Apr-2024 18:00Broken Clouds13°C4 mph, NW61%10000m1017hPa46%
17-Apr-2024 21:00Broken Clouds16°C9 mph, NW79%10000m1014hPa36%
18-Apr-2024 00:00Overcast Clouds16°C18 mph, NW90%10000m1014hPa34%
18-Apr-2024 03:00Broken Clouds12°C9 mph, N67%10000m1016hPa40%
18-Apr-2024 06:00Broken Clouds8°C7 mph, N51%10000m1018hPa40%
18-Apr-2024 09:00Scattered Clouds6°C7 mph, NE25%10000m1019hPa39%
18-Apr-2024 12:00Few Clouds5°C4 mph, NE18%10000m1020hPa44%
18-Apr-2024 15:00Clear Sky7°C4 mph, NE8%10000m1019hPa40%
18-Apr-2024 18:00Few Clouds11°C2 mph, NE14%10000m1016hPa34%
18-Apr-2024 21:00Broken Clouds15°C4 mph, NW83%10000m1013hPa34%
19-Apr-2024 00:00Overcast Clouds16°C4 mph, NW92%10000m1011hPa32%
19-Apr-2024 03:00Overcast Clouds14°C7 mph, N100%10000m1011hPa40%
19-Apr-2024 06:00Overcast Clouds12°C2 mph, N100%10000m1012hPa44%
19-Apr-2024 09:00Overcast Clouds11°C4 mph, NW100%10000m1012hPa47%
19-Apr-2024 12:00Overcast Clouds9°C4 mph, N100%10000m1013hPa49%
19-Apr-2024 15:00Overcast Clouds10°C4 mph, N100%10000m1014hPa43%
19-Apr-2024 18:00Overcast Clouds14°C4 mph, N91%10000m1012hPa36%
19-Apr-2024 21:00Overcast Clouds17°C7 mph, NW87%10000m1011hPa33%
20-Apr-2024 00:00Overcast Clouds18°C11 mph, NW93%10000m1009hPa30%
20-Apr-2024 03:00Broken Clouds14°C7 mph, N60%10000m1011hPa41%
20-Apr-2024 06:00Broken Clouds13°C2 mph, N53%10000m1013hPa48%
20-Apr-2024 09:00Overcast Clouds12°C4 mph, N96%10000m1014hPa49%
20-Apr-2024 12:00Broken Clouds10°C4 mph, N83%10000m1016hPa52%
20-Apr-2024 15:00Clear Sky12°C2 mph, N8%10000m1017hPa44%